Terminal Aerodrome Forecast
Issued by NWS Memphis, TN

Home | Current Version | Previous Version | Text Only | Print | Product List | Glossary On
Versions: 1 2 3 4 5 6 7 8 9 10 11 12 13 14 15 16 17 18 19 20 21 22 23 24 25 26 27 28 29 30 31 32
243
FTUS44 KMEG 272059 AAA
TAFMEM
TAF AMD
KMEM 272059Z 2721/2818 22015G25KT P6SM VCTS SCT045CB BKN250
     FM280100 29010KT P6SM SCT070
     FM280600 31003KT P6SM SCT025
      TEMPO 2808/2812 3SM BR
     FM281200 02005KT P6SM SCT015
      TEMPO 2812/2816 BKN015=

USA.gov is the U.S. government's official web portal to all federal, state and local government web resources and services.